Flight Track Log - Related Links

Times and Time Zones

All times are in EDT time to prevent confusion due to time zone crossing. See the AMF1026 flight status page for this flight to view local times or setup timezone preferences in your user account.

Time Position Orientation Groundspeed Altitude Reporting Facility
EDT Latitude Longitude Course Direction KTS MPH feet Rate Location/Type
Tue 08:24:57 PM 42.7339 -73.8081 179° South 144 166 1,000  Level Boston Center
Tue 08:25:16 PM 42.7194 -73.8078 179° South 146 168 1,600 1,823 Climbing Boston Center
Tue 08:26:16 PM 42.6917 -73.8525 230° Southwest 201 231 3,400 1,864 Climbing Boston Center
Tue 08:27:28 PM 42.7200 -73.9322 296° West 216 249 5,700 1,773 Climbing Boston Center
Tue 08:28:28 PM 42.7439 -74.0006 295° West 204 235 7,300 1,500 Climbing Boston Center
Tue 08:29:28 PM 42.7472 -74.0714 274° West 189 217 8,700 1,350 Climbing Boston Center
Tue 08:30:28 PM 42.7461 -74.1364 269° West 184 212 10,000 1,350 Climbing Boston Center
Tue 08:31:28 PM 42.7492 -74.2128 273° West 184 212 11,400 1,300 Climbing Boston Center
Tue 08:32:28 PM 42.7503 -74.2781 271° West 191 220 12,600 1,250 Climbing Boston Center
Tue 08:33:28 PM 42.7386 -74.3511 258° West 191 220 13,900 1,053 Climbing Boston Center
Tue 08:34:39 PM 42.7169 -74.4069 242° Southwest 191 220 14,900 909 Climbing Boston Center
Tue 08:35:40 PM 42.6800 -74.4906 239° Southwest 201 231 15,900 496 Climbing Boston Center
Tue 08:36:40 PM 42.6475 -74.5600 238° Southwest 214 246 15,900  Level Boston Center
Tue 08:37:40 PM 42.6208 -74.6439 247° West 226 260 15,900  Level Boston Center
Tue 08:38:40 PM 42.5983 -74.7303 251° West 246 283 15,900  Level Boston Center
Tue 08:39:40 PM 42.5819 -74.8172 256° West 251 289 15,900 50 Level Boston Center
Tue 08:40:40 PM 42.5592 -74.9067 251° West 251 289 16,000 50 Climbing Boston Center
Tue 08:41:40 PM 42.5364 -74.9958 251° West 251 289 16,000 -50 Level Boston Center
Tue 08:42:40 PM 42.5031 -75.0847 243° Southwest 251 289 15,900  Descending Boston Center
Tue 08:43:40 PM 42.4781 -75.1653 247° West 246 283 16,000 29 Climbing Boston Center
Tue 08:46:05 PM 42.4281 -75.3581 251° West 240 276 16,000  Level New York Center
Tue 08:47:02 PM 42.3939 -75.4314 238° Southwest 240 276 16,000  Level New York Center
Tue 08:48:03 PM 42.3597 -75.5075 239° Southwest 235 270 16,000 50 Level New York Center
Tue 08:49:03 PM 42.3297 -75.5783 240° Southwest 235 270 16,100 50 Climbing New York Center
Tue 08:50:04 PM 42.2994 -75.6572 243° Southwest 235 270 16,100  Level New York Center
Tue 08:51:03 PM 42.2714 -75.7364 244° Southwest 235 270 16,100  Level New York Center
Tue 08:52:03 PM 42.2472 -75.8131 247° West 235 270 16,100  Level New York Center
Tue 08:53:04 PM 42.2228 -75.8953 248° West 235 270 16,100  Level New York Center
Tue 08:54:05 PM 42.2069 -75.9753 255° West 235 270 16,100  Level New York Center
Tue 08:55:05 PM 42.1847 -76.0547 249° West 230 265 16,100  Level New York Center
Tue 08:56:05 PM 42.1583 -76.1336 246° West 230 265 16,100  Level New York Center
Tue 08:57:04 PM 42.1278 -76.2094 242° Southwest 230 265 16,100  Level New York Center
Tue 08:58:04 PM 42.1036 -76.2828 246° West 230 265 16,100  Level New York Center
Tue 08:59:02 PM 42.0831 -76.3650 251° West 230 265 16,100 -50 Level New York Center
Tue 09:00:03 PM 42.0628 -76.4414 250° West 230 265 16,000 -50 Descending New York Center
Tue 09:01:03 PM 42.0364 -76.5175 245° Southwest 225 259 16,000  Level New York Center
Tue 09:02:05 PM 42.0117 -76.5961 247° West 225 259 16,000  Level New York Center
Tue 09:03:03 PM 41.9850 -76.6719 245° Southwest 230 265 16,000  Level New York Center
Tue 09:04:04 PM 41.9583 -76.7478 245° Southwest 230 265 16,000  Level New York Center
Tue 09:05:05 PM 41.9317 -76.8233 245° Southwest 230 265 16,000  Level New York Center
Tue 09:06:03 PM 41.9050 -76.8961 244° Southwest 230 265 16,000  Level New York Center
Tue 09:07:03 PM 41.8761 -76.9717 243° Southwest 230 265 16,000  Level New York Center
Tue 09:08:50 PM 41.8200 -77.1114 242° Southwest 229 264 16,000  Level Cleveland Center
Tue 09:09:50 PM 41.7911 -77.1881 243° Southwest 224 258 16,000  Level Cleveland Center
Tue 09:10:50 PM 41.7639 -77.2619 244° Southwest 224 258 16,000  Level Cleveland Center
Tue 09:11:50 PM 41.7347 -77.3358 242° Southwest 224 258 16,000  Level Cleveland Center
Tue 09:12:50 PM 41.7033 -77.4069 239° Southwest 224 258 16,000  Level Cleveland Center
Tue 09:13:50 PM 41.6764 -77.4806 244° Southwest 229 264 16,000  Level Cleveland Center
Tue 09:14:50 PM 41.6467 -77.5458 239° Southwest 229 264 16,000  Level Cleveland Center
Tue 09:15:50 PM 41.6217 -77.6192 246° West 229 264 16,000  Level Cleveland Center
Tue 09:16:50 PM 41.5964 -77.6925 245° Southwest 229 264 16,000  Level Cleveland Center
Tue 09:17:50 PM 41.5731 -77.7686 248° West 219 252 16,000  Level Cleveland Center
Tue 09:18:50 PM 41.5519 -77.8417 249° West 219 252 16,000  Level Cleveland Center
Tue 09:19:50 PM 41.5289 -77.9175 248° West 219 252 16,000 50 Level Cleveland Center
Tue 09:20:50 PM 41.5075 -77.9933 249° West 213 245 16,100 50 Climbing Cleveland Center
Tue 09:21:50 PM 41.4800 -78.0692 244° Southwest 213 245 16,100 -50 Level Cleveland Center
Tue 09:22:50 PM 41.4544 -78.1394 244° Southwest 218 251 16,000 -50 Descending Cleveland Center
Tue 09:23:50 PM 41.4289 -78.2125 245° Southwest 218 251 16,000  Level Cleveland Center
Tue 09:24:50 PM 41.4056 -78.2964 250° West 218 251 16,000  Level Cleveland Center
Tue 09:25:50 PM 41.3842 -78.3719 249° West 218 251 16,000  Level Cleveland Center
Tue 09:26:50 PM 41.3667 -78.4389 251° West 218 251 16,000  Level Cleveland Center
Tue 09:27:50 PM 41.3472 -78.5114 250° West 212 244 16,000  Level Cleveland Center
Tue 09:28:50 PM 41.3236 -78.5869 247° West 212 244 16,000  Level Cleveland Center
Tue 09:29:50 PM 41.2997 -78.6567 246° West 212 244 16,000  Level Cleveland Center
Tue 09:30:50 PM 41.2758 -78.7264 246° West 212 244 16,000  Level Cleveland Center
Tue 09:31:50 PM 41.2519 -78.7961 246° West 212 244 16,000  Level Cleveland Center
Tue 09:32:50 PM 41.2300 -78.8658 247° West 212 244 16,000  Level Cleveland Center
Tue 09:33:50 PM 41.2061 -78.9356 246° West 212 244 16,000  Level Cleveland Center
Tue 09:34:50 PM 41.1800 -79.0022 243° Southwest 212 244 16,000  Level Cleveland Center
Tue 09:35:50 PM 41.1581 -79.0744 248° West 212 244 16,000  Level Cleveland Center
Tue 09:36:50 PM 41.1400 -79.1467 252° West 212 244 16,000  Level Cleveland Center
Tue 09:37:50 PM 41.1222 -79.2186 252° West 212 244 16,000  Level Cleveland Center
Tue 09:38:50 PM 41.1000 -79.2908 248° West 212 244 16,000  Level Cleveland Center
Tue 09:39:50 PM 41.0800 -79.3628 250° West 212 244 16,000  Level Cleveland Center
Tue 09:40:50 PM 41.0619 -79.4319 251° West 212 244 16,000  Level Cleveland Center
Tue 09:41:50 PM 41.0397 -79.5011 247° West 212 244 16,000  Level Cleveland Center
Tue 09:42:50 PM 41.0175 -79.5703 247° West 212 244 16,000  Level Cleveland Center
Tue 09:43:50 PM 40.9950 -79.6367 246° West 212 244 16,000  Level Cleveland Center
Tue 09:44:50 PM 40.9686 -79.7031 242° Southwest 212 244 16,000  Level Cleveland Center
Tue 09:45:50 PM 40.9419 -79.7778 245° Southwest 219 252 16,000  Level Cleveland Center
Tue 09:46:50 PM 40.9236 -79.8550 253° West 219 252 16,000  Level Cleveland Center
Tue 09:47:50 PM 40.9056 -79.9347 253° West 224 258 16,000  Level Cleveland Center
Tue 09:48:50 PM 40.8872 -80.0144 253° West 229 264 16,000  Level Cleveland Center
Tue 09:49:50 PM 40.8644 -80.0944 249° West 229 264 16,000  Level Cleveland Center
Tue 09:50:50 PM 40.8378 -80.1797 248° West 229 264 16,000  Level Cleveland Center
Tue 09:51:50 PM 40.8108 -80.2567 245° Southwest 229 264 16,000  Level Cleveland Center
Tue 09:52:50 PM 40.7714 -80.3200 231° Southwest 234 269 16,000  Level Cleveland Center
Tue 09:53:50 PM 40.7342 -80.3803 231° Southwest 239 275 16,000  Level Cleveland Center
Tue 09:54:50 PM 40.6944 -80.4433 230° Southwest 239 275 16,000  Level Cleveland Center
Tue 09:55:50 PM 40.6528 -80.5119 231° Southwest 239 275 16,000  Level Cleveland Center
Tue 09:56:50 PM 40.6069 -80.5858 231° Southwest 239 275 16,000  Level Cleveland Center
Tue 09:57:50 PM 40.5736 -80.6486 235° Southwest 229 264 16,000  Level Cleveland Center
Tue 09:58:50 PM 40.5361 -80.7169 234° Southwest 229 264 16,000  Level Cleveland Center
Tue 09:59:50 PM 40.4986 -80.7878 235° Southwest 235 270 16,000  Level Cleveland Center
Tue 10:00:50 PM 40.4650 -80.8586 238° Southwest 241 277 16,000  Level Cleveland Center
Tue 10:01:50 PM 40.4314 -80.9294 238° Southwest 241 277 16,000 50 Level Cleveland Center
Tue 10:02:50 PM 40.3936 -81.0028 236° Southwest 241 277 16,100  Climbing Cleveland Center
Tue 10:03:50 PM 40.3558 -81.0761 236° Southwest 241 277 16,000 -30 Descending Cleveland Center
Tue 10:06:10 PM 40.2678 -81.2383 235° Southwest 240 276 16,000  Level Indianapolis Center
Tue 10:07:12 PM 40.2275 -81.3103 234° Southwest 242 278 16,000  Level Indianapolis Center
Tue 10:08:13 PM 40.1919 -81.3867 239° Southwest 244 281 16,000  Level Indianapolis Center
Tue 10:09:15 PM 40.1594 -81.4622 241° Southwest 238 274 16,000  Level Indianapolis Center
Tue 10:10:16 PM 40.1194 -81.5519 240° Southwest 241 277 16,000  Level Indianapolis Center
Tue 10:11:17 PM 40.0867 -81.6275 240° Southwest 237 273 16,000  Level Indianapolis Center
Tue 10:12:18 PM 40.0533 -81.7061 241° Southwest 244 281 16,000  Level Indianapolis Center
Tue 10:13:20 PM 40.0217 -81.7789 240° Southwest 241 277 16,000  Level Indianapolis Center
Tue 10:14:21 PM 39.9908 -81.8561 242° Southwest 239 275 16,000  Level Indianapolis Center
Tue 10:15:22 PM 39.9594 -81.9308 241° Southwest 235 270 16,000  Level Indianapolis Center
Tue 10:16:24 PM 39.9303 -82.0064 243° Southwest 232 267 16,000  Level Indianapolis Center
Tue 10:17:25 PM 39.8983 -82.0800 241° Southwest 231 266 16,000  Level Indianapolis Center
Tue 10:18:26 PM 39.8658 -82.1553 241° Southwest 236 272 16,000  Level Indianapolis Center
Tue 10:19:27 PM 39.8344 -82.2308 242° Southwest 235 270 16,000  Level Indianapolis Center
Tue 10:20:29 PM 39.8047 -82.3064 243° Southwest 234 269 16,000  Level Indianapolis Center
Tue 10:21:30 PM 39.7756 -82.3819 243° Southwest 232 267 16,000  Level Indianapolis Center
Tue 10:22:31 PM 39.7439 -82.4703 245° Southwest 230 265 16,000  Level Indianapolis Center
Tue 10:23:33 PM 39.7172 -82.5444 245° Southwest 227 261 16,000  Level Indianapolis Center
Tue 10:24:34 PM 39.6900 -82.6178 244° Southwest 222 255 16,000  Level Indianapolis Center
Tue 10:25:35 PM 39.6631 -82.6894 244° Southwest 220 253 16,000  Level Indianapolis Center
Tue 10:26:37 PM 39.6358 -82.7622 244° Southwest 221 254 16,000  Level Indianapolis Center
Tue 10:27:38 PM 39.6100 -82.8347 245° Southwest 221 254 16,000  Level Indianapolis Center
Tue 10:28:39 PM 39.5844 -82.9069 245° Southwest 220 253 16,000  Level Indianapolis Center
Tue 10:29:41 PM 39.5589 -82.9803 246° West 221 254 16,000  Level Indianapolis Center
Tue 10:30:42 PM 39.5317 -83.0514 244° Southwest 218 251 16,000 -49 Level Indianapolis Center
Tue 10:31:43 PM 39.5039 -83.1239 244° Southwest 222 255 15,900 -732 Descending Indianapolis Center
Tue 10:32:45 PM 39.4722 -83.2000 242° Southwest 235 270 14,500 -1,220 Descending Indianapolis Center
Tue 10:33:46 PM 39.4503 -83.2817 251° West 237 273 13,400 -1,180 Descending Indianapolis Center
Tue 10:34:47 PM 39.4364 -83.3614 257° West 228 262 12,100 -1,180 Descending Indianapolis Center
Tue 10:35:48 PM 39.4186 -83.4419 254° West 229 264 11,000 -537 Descending Indianapolis Center
Tue 10:36:50 PM 39.4042 -83.5222 257° West 228 262 11,000  Level Indianapolis Center
Tue 10:37:51 PM 39.3875 -83.6033 255° West 229 264 11,000  Level Indianapolis Center
Tue 10:38:52 PM 39.3647 -83.6839 250° West 235 270 11,000  Level Indianapolis Center
Tue 10:39:53 PM 39.3386 -83.7603 246° West 231 266 11,000  Level Indianapolis Center
Tue 10:40:55 PM 39.3119 -83.8342 245° Southwest 227 261 11,000  Level Indianapolis Center
Tue 10:41:56 PM 39.2828 -83.9075 243° Southwest 228 262 11,000 -443 Level Indianapolis Center
Tue 10:42:57 PM 39.2489 -83.9911 242° Southwest 225 259 10,100 -934 Descending Indianapolis Center
Tue 10:43:58 PM 39.2261 -84.0656 248° West 220 253 9,100 -1,122 Descending Indianapolis Center
Tue 10:45:00 PM 39.2089 -84.1383 253° West 212 244 7,800 -1,463 Descending Indianapolis Center
Tue 10:46:01 PM 39.1928 -84.2097 254° West 207 238 6,100 -1,328 Descending Indianapolis Center
Tue 10:47:02 PM 39.1814 -84.2803 258° West 203 234 5,100 -738 Descending Indianapolis Center
Tue 10:48:03 PM 39.1758 -84.3492 264° West 195 224 4,600 -885 Descending Indianapolis Center
Tue 10:49:04 PM 39.1658 -84.4172 259° West 193 222 3,300 -780 Descending Indianapolis Center
Tue 10:50:06 PM 39.1439 -84.4758 244° Southwest 188 216 3,000 -138 Descending Indianapolis Center
Tue 10:51:14 PM 39.1167 -84.5333 239° Southwest 175 201 3,000 -148 Level Cincinnati TRACON
Tue 10:52:08 PM 39.1167 -84.6000 270° West 180 207 2,700 -579 Descending Cincinnati TRACON
Tue 10:53:08 PM 39.1167 -84.6333 270° West 125 144 1,900 -571 Descending Cincinnati TRACON
Tue 10:54:14 PM 39.1000 -84.6667 237° Southwest 97 112 1,500 -364 Descending Cincinnati TRACON
Tue 10:56:00 PM 39.0488 -84.6678 247° West  Level Estimated
Tue 11:03:00 PM 39.0488 -84.6678 247° West  Level Estimated

Login

Don't have an account? Register now (free) for customized features, flight alerts, and more!